createdAt,value
2023-05-05T00:01:22.155Z,100.00
2023-05-05T00:03:49.192Z,100.00
2023-05-05T00:06:16.184Z,100.00
2023-05-05T00:08:42.903Z,100.00
2023-05-05T00:11:09.704Z,100.00
2023-05-05T00:13:36.470Z,100.00
2023-05-05T00:16:03.273Z,100.00
2023-05-05T00:18:30.214Z,100.00
2023-05-05T00:20:57.055Z,100.00
2023-05-05T00:23:23.693Z,100.00
2023-05-05T00:25:50.355Z,100.00
2023-05-05T00:28:17.295Z,100.00
2023-05-05T00:30:44.071Z,100.00
2023-05-05T00:33:11.147Z,100.00
2023-05-05T00:35:37.982Z,100.00
2023-05-05T00:38:05.046Z,100.00
2023-05-05T00:40:31.863Z,100.00
2023-05-05T00:42:59.645Z,100.00
2023-05-05T00:45:26.584Z,100.00
2023-05-05T00:47:59.204Z,100.00
2023-05-05T00:50:30.934Z,100.00
2023-05-05T00:53:03.781Z,100.00
2023-05-05T00:55:32.056Z,100.00
2023-05-05T00:58:00.312Z,100.00
2023-05-05T01:00:28.277Z,100.00
2023-05-05T01:02:55.600Z,100.00
2023-05-05T01:05:24.546Z,100.00
2023-05-05T01:08:00.222Z,100.00
2023-05-05T01:10:34.847Z,100.00
2023-05-05T01:13:09.000Z,100.00
2023-05-05T01:15:46.579Z,100.00
2023-05-05T01:18:28.520Z,100.00
2023-05-05T01:20:55.136Z,100.00
2023-05-05T01:23:59.321Z,100.00
2023-05-05T01:26:52.013Z,100.00
2023-05-05T01:29:24.492Z,100.00
2023-05-05T01:31:57.887Z,100.00
2023-05-05T01:34:27.944Z,100.00
2023-05-05T01:37:10.092Z,100.00
2023-05-05T01:39:39.066Z,100.00
2023-05-05T01:42:10.233Z,100.00
2023-05-05T01:44:38.282Z,100.00
2023-05-05T01:47:06.612Z,100.00
2023-05-05T01:49:36.118Z,100.00
2023-05-05T01:52:05.012Z,100.00
2023-05-05T01:54:34.632Z,100.00
2023-05-05T01:57:04.875Z,100.00
2023-05-05T01:59:33.369Z,100.00
2023-05-05T02:02:02.836Z,100.00
2023-05-05T02:04:31.699Z,100.00
2023-05-05T02:06:59.686Z,100.00
2023-05-05T02:09:28.620Z,100.00
2023-05-05T02:11:58.147Z,100.00
2023-05-05T02:14:28.758Z,100.00
2023-05-05T02:16:57.076Z,100.00
2023-05-05T02:19:30.966Z,100.00
2023-05-05T02:21:58.193Z,100.00
2023-05-05T02:24:26.468Z,100.00
2023-05-05T02:26:55.094Z,100.00
2023-05-05T02:29:31.388Z,100.00
2023-05-05T02:32:05.056Z,100.00
2023-05-05T02:34:36.799Z,100.00
2023-05-05T02:37:11.192Z,100.00
2023-05-05T02:39:45.380Z,100.00
2023-05-05T02:42:20.390Z,100.00
2023-05-05T02:44:51.807Z,100.00
2023-05-05T02:47:20.856Z,100.00
2023-05-05T02:49:48.241Z,100.00
2023-05-05T02:52:15.036Z,100.00
2023-05-05T02:54:44.029Z,100.00
2023-05-05T02:57:20.366Z,100.00
2023-05-05T03:00:05.991Z,100.00
2023-05-05T03:02:45.239Z,100.00
2023-05-05T03:05:21.764Z,100.00
2023-05-05T03:07:56.069Z,100.00
2023-05-05T03:10:32.534Z,100.00
2023-05-05T03:13:03.040Z,100.00
2023-05-05T03:15:52.444Z,100.00
2023-05-05T03:18:24.252Z,100.00
2023-05-05T03:20:59.159Z,100.00
2023-05-05T03:23:26.043Z,100.00
2023-05-05T03:25:57.604Z,100.00
2023-05-05T03:28:37.514Z,100.00
2023-05-05T03:31:12.980Z,100.00
2023-05-05T03:33:39.822Z,100.00
2023-05-05T03:36:06.781Z,100.00
2023-05-05T03:38:34.237Z,100.00
2023-05-05T03:41:03.306Z,100.00
2023-05-05T03:43:31.021Z,100.00
2023-05-05T03:45:58.259Z,100.00
2023-05-05T03:48:25.427Z,100.00
2023-05-05T03:50:53.932Z,100.00
2023-05-05T03:53:22.725Z,100.00
2023-05-05T03:55:49.488Z,100.00
2023-05-05T03:58:16.698Z,100.00
2023-05-05T04:00:43.402Z,100.00
2023-05-05T04:03:11.582Z,100.00
2023-05-05T04:05:38.639Z,100.00
2023-05-05T04:08:05.746Z,100.00
2023-05-05T04:10:32.744Z,100.00
2023-05-05T04:13:00.473Z,100.00
2023-05-05T04:15:28.983Z,100.00
2023-05-05T04:17:55.867Z,100.00
2023-05-05T04:20:22.647Z,100.00
2023-05-05T04:22:52.651Z,100.00
2023-05-05T04:25:21.135Z,100.00
2023-05-05T04:27:49.091Z,100.00
2023-05-05T04:30:16.020Z,100.00
2023-05-05T04:32:43.017Z,100.00
2023-05-05T04:35:11.337Z,100.00
2023-05-05T04:37:38.449Z,100.00
2023-05-05T04:40:05.924Z,100.00
2023-05-05T04:42:34.078Z,100.00
2023-05-05T04:45:02.038Z,100.00
2023-05-05T04:47:29.673Z,100.00
2023-05-05T04:49:56.443Z,100.00
2023-05-05T04:52:23.115Z,100.00
2023-05-05T04:54:49.892Z,100.00
2023-05-05T04:57:17.352Z,100.00
2023-05-05T04:59:44.184Z,100.00
2023-05-05T05:02:10.869Z,100.00
2023-05-05T05:04:37.508Z,100.00
2023-05-05T05:07:04.164Z,100.00
2023-05-05T05:09:31.503Z,100.00
2023-05-05T05:12:04.505Z,100.00
2023-05-05T05:14:36.814Z,100.00
2023-05-05T05:17:04.233Z,100.00
2023-05-05T05:19:31.164Z,100.00
2023-05-05T05:21:58.337Z,100.00
2023-05-05T05:24:26.244Z,100.00
2023-05-05T05:26:53.979Z,100.00
2023-05-05T05:29:20.697Z,100.00
2023-05-05T05:31:48.501Z,100.00
2023-05-05T05:34:15.237Z,100.00
2023-05-05T05:36:42.819Z,100.00
2023-05-05T05:39:09.617Z,100.00
2023-05-05T05:41:36.292Z,100.00
2023-05-05T05:44:03.427Z,100.00
2023-05-05T05:46:30.761Z,98.94
2023-05-05T05:48:57.791Z,95.46
2023-05-05T05:51:25.016Z,90.92
2023-05-05T05:53:52.362Z,91.75
2023-05-05T05:56:19.350Z,87.84
2023-05-05T05:58:48.530Z,85.76
2023-05-05T06:01:16.056Z,83.17
2023-05-05T06:03:43.677Z,81.88
2023-05-05T06:06:10.985Z,80.22
2023-05-05T06:08:37.819Z,83.75
2023-05-05T06:11:04.567Z,83.04
2023-05-05T06:13:31.279Z,81.25
2023-05-05T06:15:57.973Z,75.95
2023-05-05T06:18:24.918Z,79.56
2023-05-05T06:20:52.397Z,74.08
2023-05-05T06:23:21.253Z,79.76
2023-05-05T06:25:54.620Z,82.21
2023-05-05T06:28:21.550Z,82.72
2023-05-05T06:30:48.195Z,76.73
2023-05-05T06:33:14.869Z,72.99
2023-05-05T06:35:41.503Z,78.49
2023-05-05T06:38:08.195Z,68.71
2023-05-05T06:40:34.808Z,68.90
2023-05-05T06:43:01.533Z,67.44
2023-05-05T06:45:34.311Z,67.88
2023-05-05T06:48:00.995Z,69.43
2023-05-05T06:50:27.691Z,71.59
2023-05-05T06:52:54.417Z,72.92
2023-05-05T06:55:21.259Z,70.53
2023-05-05T06:57:47.917Z,65.18
2023-05-05T07:00:15.314Z,66.14
2023-05-05T07:02:42.019Z,65.92
2023-05-05T07:05:08.940Z,66.40
2023-05-05T07:07:36.368Z,58.05
2023-05-05T07:10:03.083Z,56.65
2023-05-05T07:12:33.786Z,60.65
2023-05-05T07:15:03.213Z,55.00
2023-05-05T07:17:36.276Z,54.47
2023-05-05T07:20:03.094Z,47.87
2023-05-05T07:22:29.708Z,46.47
2023-05-05T07:24:56.352Z,46.00
2023-05-05T07:27:23.144Z,43.92
2023-05-05T07:29:49.880Z,44.62
2023-05-05T07:32:16.638Z,45.31
2023-05-05T07:34:44.494Z,43.02
2023-05-05T07:37:11.176Z,45.24
2023-05-05T07:39:37.808Z,39.35
2023-05-05T07:42:04.524Z,43.56
2023-05-05T07:44:31.722Z,44.69
2023-05-05T07:46:58.472Z,42.75
2023-05-05T07:49:25.386Z,40.41
2023-05-05T07:51:52.140Z,38.50
2023-05-05T07:54:19.155Z,41.34
2023-05-05T07:56:45.903Z,40.18
2023-05-05T07:59:13.042Z,38.59
2023-05-05T08:01:39.773Z,38.62
2023-05-05T08:04:06.667Z,39.00
2023-05-05T08:06:33.567Z,37.71
2023-05-05T08:09:01.424Z,37.64
2023-05-05T08:11:29.641Z,38.06
2023-05-05T08:13:56.423Z,33.70
2023-05-05T08:16:23.094Z,33.45
2023-05-05T08:18:49.760Z,38.13
2023-05-05T08:21:16.470Z,39.64
2023-05-05T08:23:43.087Z,36.73
2023-05-05T08:26:09.737Z,37.50
2023-05-05T08:28:36.890Z,35.99
2023-05-05T08:31:06.900Z,32.98
2023-05-05T08:33:33.654Z,32.51
2023-05-05T08:36:00.436Z,36.65
2023-05-05T08:38:27.253Z,32.42
2023-05-05T08:40:53.934Z,32.37
2023-05-05T08:43:22.859Z,33.43
2023-05-05T08:45:51.308Z,33.47
2023-05-05T08:48:22.778Z,32.13
2023-05-05T08:50:59.960Z,31.85
2023-05-05T08:53:52.712Z,35.98
2023-05-05T08:56:21.917Z,32.97
2023-05-05T08:58:50.950Z,33.71
2023-05-05T09:01:18.441Z,32.22
2023-05-05T09:03:46.257Z,31.96
2023-05-05T09:06:13.046Z,32.39
2023-05-05T09:08:39.955Z,33.32
2023-05-05T09:11:06.643Z,34.95
2023-05-05T09:13:33.339Z,33.96
2023-05-05T09:16:00.043Z,30.50
2023-05-05T09:18:27.153Z,29.24
2023-05-05T09:20:53.783Z,31.06
2023-05-05T09:23:21.460Z,32.49
2023-05-05T09:26:03.746Z,28.39
2023-05-05T09:28:30.792Z,29.49
2023-05-05T09:31:12.659Z,29.08
2023-05-05T09:33:39.328Z,28.92
2023-05-05T09:36:06.309Z,31.87
2023-05-05T09:38:34.860Z,28.95
2023-05-05T09:41:01.615Z,29.85
2023-05-05T09:43:28.267Z,29.83
2023-05-05T09:46:07.658Z,27.40
2023-05-05T09:48:34.575Z,28.82
2023-05-05T09:51:01.416Z,30.44
2023-05-05T09:53:39.103Z,29.15
2023-05-05T09:56:06.964Z,27.26
2023-05-05T09:58:33.739Z,29.63
2023-05-05T10:01:00.740Z,27.38
2023-05-05T10:03:27.480Z,26.53
2023-05-05T10:05:56.535Z,29.39
2023-05-05T10:08:24.323Z,27.02
2023-05-05T10:10:54.901Z,27.14
2023-05-05T10:13:23.645Z,26.49
2023-05-05T10:15:53.131Z,26.51
2023-05-05T10:18:22.472Z,27.59
2023-05-05T10:21:03.225Z,25.22
2023-05-05T10:23:57.920Z,25.36
2023-05-05T10:26:27.633Z,23.63
2023-05-05T10:29:03.141Z,25.74
2023-05-05T10:31:52.547Z,26.31
2023-05-05T10:34:39.313Z,25.30
2023-05-05T10:37:06.896Z,25.53
2023-05-05T10:39:37.513Z,25.67
2023-05-05T10:42:04.440Z,27.19
2023-05-05T10:44:34.213Z,26.14
2023-05-05T10:47:02.128Z,25.95
2023-05-05T10:49:44.767Z,25.28
2023-05-05T10:52:25.942Z,26.08
2023-05-05T10:55:07.828Z,18.12
2023-05-05T10:57:38.813Z,17.69
2023-05-05T11:00:08.519Z,17.30
2023-05-05T11:02:36.197Z,15.76
2023-05-05T11:05:08.244Z,16.77
2023-05-05T11:07:35.539Z,15.67
2023-05-05T11:10:05.204Z,16.31
2023-05-05T11:12:33.577Z,14.44
2023-05-05T11:15:22.215Z,15.38
2023-05-05T11:17:49.031Z,15.71
2023-05-05T11:20:15.920Z,16.46
2023-05-05T11:23:04.845Z,14.11
2023-05-05T11:25:35.217Z,15.89
2023-05-05T11:28:12.059Z,14.43
2023-05-05T11:30:58.163Z,15.67
2023-05-05T11:33:45.763Z,16.44
2023-05-05T11:36:14.717Z,14.30
2023-05-05T11:39:23.071Z,14.63
2023-05-05T11:41:58.586Z,14.59
2023-05-05T11:44:35.711Z,14.52
2023-05-05T11:47:05.143Z,15.80
2023-05-05T11:49:32.820Z,15.19
2023-05-05T11:52:00.465Z,15.99
2023-05-05T11:54:27.486Z,15.63
2023-05-05T11:57:08.434Z,16.13
2023-05-05T11:59:37.506Z,15.85
2023-05-05T12:02:04.755Z,14.93
2023-05-05T12:04:32.200Z,16.39
2023-05-05T12:06:59.409Z,15.24
2023-05-05T12:09:27.244Z,14.79
2023-05-05T12:11:56.587Z,15.21
2023-05-05T12:14:24.364Z,15.76
2023-05-05T12:17:03.043Z,15.13
2023-05-05T12:19:33.158Z,14.87
2023-05-05T12:22:01.034Z,16.21
2023-05-05T12:24:28.082Z,15.94
2023-05-05T12:26:54.743Z,15.69
2023-05-05T12:29:28.801Z,14.88
2023-05-05T12:31:58.145Z,15.08
2023-05-05T12:34:25.001Z,14.56
2023-05-05T12:36:51.898Z,16.54
2023-05-05T12:39:18.915Z,15.31
2023-05-05T12:41:45.744Z,14.94
2023-05-05T12:44:12.403Z,14.95
2023-05-05T12:46:46.060Z,14.57
2023-05-05T12:49:12.747Z,14.25
2023-05-05T12:51:52.181Z,14.27
2023-05-05T12:54:18.824Z,14.63
2023-05-05T12:56:47.986Z,14.66
2023-05-05T12:59:24.157Z,13.20
2023-05-05T13:01:55.546Z,14.40
2023-05-05T13:04:27.491Z,13.78
2023-05-05T13:07:12.205Z,13.85
2023-05-05T13:09:39.196Z,14.29
2023-05-05T13:12:08.269Z,14.12
2023-05-05T13:14:36.358Z,14.16
2023-05-05T13:17:03.461Z,13.52
2023-05-05T13:19:30.813Z,14.03
2023-05-05T13:21:58.765Z,14.69
2023-05-05T13:24:38.064Z,16.15
2023-05-05T13:27:09.584Z,15.97
2023-05-05T13:29:36.384Z,16.86
2023-05-05T13:32:03.322Z,15.68
2023-05-05T13:34:30.179Z,16.53
2023-05-05T13:36:56.857Z,19.76
2023-05-05T13:39:23.559Z,20.20
2023-05-05T13:41:50.466Z,19.96
2023-05-05T13:44:17.216Z,21.51
2023-05-05T13:46:43.955Z,23.01
2023-05-05T13:49:11.213Z,21.58
2023-05-05T13:51:39.195Z,22.07
2023-05-05T13:54:06.932Z,22.05
2023-05-05T13:56:34.363Z,23.23
2023-05-05T13:59:01.409Z,22.98
2023-05-05T14:01:28.689Z,23.63
2023-05-05T14:03:57.236Z,25.25
2023-05-05T14:06:24.501Z,23.31
2023-05-05T14:08:51.676Z,25.68
2023-05-05T14:11:18.399Z,25.99
2023-05-05T14:13:46.498Z,25.36
2023-05-05T14:16:13.516Z,24.57
2023-05-05T14:18:40.804Z,23.74
2023-05-05T14:21:07.630Z,24.53
2023-05-05T14:23:34.335Z,24.18
2023-05-05T14:26:01.197Z,24.93
2023-05-05T14:28:27.833Z,27.10
2023-05-05T14:30:54.582Z,28.28
2023-05-05T14:33:22.182Z,26.82
2023-05-05T14:35:49.082Z,26.92
2023-05-05T14:38:15.943Z,27.67
2023-05-05T14:40:42.672Z,29.92
2023-05-05T14:43:09.383Z,28.67
2023-05-05T14:45:36.071Z,30.94
2023-05-05T14:48:02.834Z,32.91
2023-05-05T14:50:29.537Z,32.67
2023-05-05T14:52:56.352Z,31.11
2023-05-05T14:55:24.936Z,30.99
2023-05-05T14:57:51.992Z,32.99
2023-05-05T15:00:19.153Z,33.47
2023-05-05T15:02:48.012Z,32.29
2023-05-05T15:05:14.983Z,32.87
2023-05-05T15:07:41.729Z,32.66
2023-05-05T15:10:08.725Z,32.47
2023-05-05T15:12:35.560Z,33.29
2023-05-05T15:15:02.267Z,33.89
2023-05-05T15:17:30.759Z,32.26
2023-05-05T15:19:57.661Z,35.07
2023-05-05T15:22:24.355Z,33.76
2023-05-05T15:24:51.030Z,34.53
2023-05-05T15:27:18.316Z,34.51
2023-05-05T15:29:45.302Z,34.14
2023-05-05T15:32:12.206Z,35.04
2023-05-05T15:34:38.909Z,36.12
2023-05-05T15:37:05.743Z,35.57
2023-05-05T15:39:32.405Z,35.70
2023-05-05T15:42:02.680Z,37.24
2023-05-05T15:44:30.028Z,35.15
2023-05-05T15:46:56.764Z,36.00
2023-05-05T15:49:23.439Z,37.06
2023-05-05T15:51:50.078Z,36.63
2023-05-05T15:54:16.798Z,36.02
2023-05-05T15:56:43.538Z,38.02
2023-05-05T15:59:10.272Z,41.24
2023-05-05T16:01:37.087Z,41.15
2023-05-05T16:04:03.965Z,37.43
2023-05-05T16:06:30.649Z,37.28
2023-05-05T16:08:58.628Z,37.98
2023-05-05T16:11:26.567Z,39.17
2023-05-05T16:13:53.776Z,37.88
2023-05-05T16:16:20.796Z,39.07
2023-05-05T16:18:47.722Z,39.71
2023-05-05T16:21:14.471Z,39.85
2023-05-05T16:23:41.408Z,40.30
2023-05-05T16:26:08.425Z,41.87
2023-05-05T16:28:35.102Z,40.13
2023-05-05T16:31:02.286Z,42.36
2023-05-05T16:33:29.339Z,41.29
2023-05-05T16:35:56.176Z,41.77
2023-05-05T16:38:23.028Z,42.33
2023-05-05T16:40:49.721Z,43.51
2023-05-05T16:43:16.469Z,44.03
2023-05-05T16:45:43.619Z,43.52
2023-05-05T16:48:10.410Z,42.61
2023-05-05T16:50:37.694Z,43.71
2023-05-05T16:53:04.386Z,43.24
2023-05-05T16:55:31.529Z,45.30
2023-05-05T16:57:58.163Z,43.91
2023-05-05T17:00:25.208Z,43.64
2023-05-05T17:02:53.142Z,44.14
2023-05-05T17:05:19.837Z,44.00
2023-05-05T17:07:50.118Z,44.96
2023-05-05T17:10:16.906Z,46.60
2023-05-05T17:12:43.702Z,46.05
2023-05-05T17:15:10.960Z,45.17
2023-05-05T17:17:37.987Z,45.41
2023-05-05T17:20:05.533Z,46.79
2023-05-05T17:22:32.243Z,46.82
2023-05-05T17:24:59.179Z,49.62
2023-05-05T17:27:26.394Z,51.09
2023-05-05T17:29:53.674Z,50.20
2023-05-05T17:32:20.409Z,50.76
2023-05-05T17:34:47.063Z,49.76
2023-05-05T17:37:14.183Z,50.27
2023-05-05T17:39:40.807Z,51.80
2023-05-05T17:42:07.447Z,53.22
2023-05-05T17:44:34.094Z,54.12
2023-05-05T17:47:02.769Z,52.86
2023-05-05T17:49:29.884Z,53.23
2023-05-05T17:51:56.575Z,55.18
2023-05-05T17:54:23.483Z,55.54
2023-05-05T17:56:50.094Z,53.96
2023-05-05T17:59:16.713Z,57.46
2023-05-05T18:01:43.436Z,54.51
2023-05-05T18:04:10.383Z,56.26
2023-05-05T18:06:37.242Z,57.71
2023-05-05T18:09:03.970Z,57.35
2023-05-05T18:11:31.572Z,57.20
2023-05-05T18:13:58.421Z,58.95
2023-05-05T18:16:25.416Z,59.62
2023-05-05T18:18:52.784Z,60.20
2023-05-05T18:21:19.425Z,60.06
2023-05-05T18:23:46.238Z,61.99
2023-05-05T18:26:12.893Z,62.08
2023-05-05T18:28:39.532Z,61.27
2023-05-05T18:31:06.560Z,63.82
2023-05-05T18:33:33.276Z,64.95
2023-05-05T18:35:59.930Z,66.07
2023-05-05T18:38:26.813Z,68.09
2023-05-05T18:40:53.650Z,68.81
2023-05-05T18:43:20.448Z,69.15
2023-05-05T18:45:47.362Z,71.38
2023-05-05T18:48:14.097Z,71.98
2023-05-05T18:50:41.209Z,73.70
2023-05-05T18:53:07.972Z,74.22
2023-05-05T18:55:34.621Z,75.83
2023-05-05T18:58:01.409Z,76.15
2023-05-05T19:00:28.068Z,79.70
2023-05-05T19:02:54.768Z,80.07
2023-05-05T19:05:21.625Z,80.00
2023-05-05T19:07:48.326Z,79.70
2023-05-05T19:10:15.002Z,80.98
2023-05-05T19:12:41.665Z,83.77
2023-05-05T19:15:08.903Z,84.32
2023-05-05T19:17:36.557Z,84.62
2023-05-05T19:20:03.392Z,86.86
2023-05-05T19:22:30.354Z,87.14
2023-05-05T19:24:57.077Z,88.59
2023-05-05T19:27:23.727Z,89.17
2023-05-05T19:29:52.520Z,90.63
2023-05-05T19:32:20.489Z,90.32
2023-05-05T19:34:47.584Z,91.74
2023-05-05T19:37:14.277Z,91.79
2023-05-05T19:39:43.112Z,93.01
2023-05-05T19:42:09.837Z,94.48
2023-05-05T19:44:36.491Z,95.75
2023-05-05T19:47:03.299Z,96.56
2023-05-05T19:49:30.169Z,95.53
2023-05-05T19:51:57.559Z,94.63
2023-05-05T19:54:24.803Z,93.86
2023-05-05T19:56:51.764Z,93.35
2023-05-05T19:59:18.431Z,94.35
2023-05-05T20:01:45.232Z,93.11
2023-05-05T20:04:12.017Z,93.63
2023-05-05T20:06:38.993Z,93.18
2023-05-05T20:09:05.714Z,93.78
2023-05-05T20:11:33.303Z,94.68
2023-05-05T20:13:59.978Z,95.05
2023-05-05T20:16:26.825Z,95.47
2023-05-05T20:18:53.658Z,96.59
2023-05-05T20:21:21.711Z,96.92
2023-05-05T20:23:48.383Z,98.01
2023-05-05T20:26:15.319Z,99.42
2023-05-05T20:28:45.124Z,98.46
2023-05-05T20:31:15.027Z,99.79
2023-05-05T20:33:41.770Z,99.62
2023-05-05T20:36:08.423Z,100.00
2023-05-05T20:38:35.090Z,100.00
2023-05-05T20:41:01.804Z,100.00
2023-05-05T20:43:28.547Z,100.00
2023-05-05T20:45:55.487Z,100.00
2023-05-05T20:48:22.215Z,100.00
2023-05-05T20:50:48.980Z,100.00
2023-05-05T20:53:18.857Z,100.00
2023-05-05T20:55:45.578Z,100.00
2023-05-05T20:58:12.522Z,100.00
2023-05-05T21:00:39.327Z,100.00
2023-05-05T21:03:06.170Z,100.00
2023-05-05T21:05:32.930Z,100.00
2023-05-05T21:08:01.156Z,100.00
2023-05-05T21:10:29.078Z,100.00
2023-05-05T21:12:55.949Z,100.00
2023-05-05T21:15:22.896Z,100.00
2023-05-05T21:17:49.674Z,100.00
2023-05-05T21:20:16.975Z,100.00
2023-05-05T21:22:44.039Z,100.00
2023-05-05T21:25:21.145Z,100.00
2023-05-05T21:27:48.617Z,100.00
2023-05-05T21:30:15.898Z,100.00
2023-05-05T21:32:43.052Z,100.00
2023-05-05T21:35:10.434Z,100.00
2023-05-05T21:37:38.471Z,100.00
2023-05-05T21:40:07.228Z,100.00
2023-05-05T21:42:34.002Z,100.00
2023-05-05T21:45:00.655Z,100.00
2023-05-05T21:47:27.421Z,100.00
2023-05-05T21:49:54.072Z,100.00
2023-05-05T21:52:20.886Z,100.00
2023-05-05T21:54:47.627Z,100.00
2023-05-05T21:57:14.290Z,100.00
2023-05-05T21:59:41.325Z,100.00
2023-05-05T22:02:07.991Z,100.00
2023-05-05T22:04:34.727Z,100.00
2023-05-05T22:07:01.441Z,100.00
2023-05-05T22:09:28.140Z,100.00
2023-05-05T22:11:54.893Z,100.00
2023-05-05T22:14:21.565Z,100.00
2023-05-05T22:16:48.235Z,100.00
2023-05-05T22:19:14.890Z,100.00
2023-05-05T22:21:41.519Z,100.00
2023-05-05T22:24:08.176Z,100.00
2023-05-05T22:26:34.850Z,100.00
2023-05-05T22:29:01.621Z,100.00
2023-05-05T22:31:29.453Z,100.00
2023-05-05T22:33:56.231Z,100.00
2023-05-05T22:36:23.297Z,100.00
2023-05-05T22:38:49.930Z,100.00
2023-05-05T22:41:16.582Z,100.00
2023-05-05T22:43:43.229Z,100.00
2023-05-05T22:46:09.969Z,100.00
2023-05-05T22:48:36.754Z,100.00
2023-05-05T22:51:03.701Z,100.00
2023-05-05T22:53:30.356Z,100.00
2023-05-05T22:55:58.403Z,100.00
2023-05-05T22:58:25.789Z,100.00
2023-05-05T23:00:52.541Z,100.00
2023-05-05T23:03:19.315Z,100.00
2023-05-05T23:05:46.014Z,100.00
2023-05-05T23:08:12.717Z,100.00
2023-05-05T23:10:39.421Z,100.00
2023-05-05T23:13:06.195Z,100.00
2023-05-05T23:15:32.942Z,100.00
2023-05-05T23:17:59.625Z,100.00
2023-05-05T23:20:26.447Z,100.00
2023-05-05T23:22:53.370Z,100.00
2023-05-05T23:25:19.994Z,100.00
2023-05-05T23:27:46.658Z,100.00
2023-05-05T23:30:13.705Z,100.00
2023-05-05T23:32:40.467Z,100.00
2023-05-05T23:35:07.829Z,100.00
2023-05-05T23:37:34.772Z,100.00
2023-05-05T23:40:01.409Z,100.00
2023-05-05T23:42:28.043Z,100.00
2023-05-05T23:44:54.673Z,100.00
2023-05-05T23:47:21.329Z,100.00
2023-05-05T23:49:48.009Z,100.00
2023-05-05T23:52:14.687Z,100.00
2023-05-05T23:54:41.637Z,100.00
2023-05-05T23:57:08.284Z,100.00
2023-05-05T23:59:34.935Z,100.00
